createdAt,value
2023-09-24T00:01:00.135Z,13.84
2023-09-24T00:03:27.639Z,13.88
2023-09-24T00:05:54.704Z,13.91
2023-09-24T00:08:22.224Z,13.90
2023-09-24T00:10:54.075Z,13.92
2023-09-24T00:13:23.018Z,13.85
2023-09-24T00:15:51.277Z,13.72
2023-09-24T00:18:19.124Z,13.85
2023-09-24T00:20:45.904Z,13.83
2023-09-24T00:23:12.782Z,13.70
2023-09-24T00:25:39.471Z,13.70
2023-09-24T00:28:06.228Z,13.71
2023-09-24T00:30:35.380Z,13.55
2023-09-24T00:33:02.299Z,13.54
2023-09-24T00:35:31.325Z,13.62
2023-09-24T00:37:58.225Z,13.60
2023-09-24T00:40:24.976Z,13.62
2023-09-24T00:42:51.788Z,13.66
2023-09-24T00:45:18.506Z,13.69
2023-09-24T00:47:46.715Z,13.62
2023-09-24T00:50:14.960Z,13.48
2023-09-24T00:52:43.842Z,13.39
2023-09-24T00:55:12.742Z,13.34
2023-09-24T00:57:40.175Z,13.36
2023-09-24T01:00:12.442Z,13.24
2023-09-24T01:02:43.002Z,13.23
2023-09-24T01:05:10.510Z,13.27
2023-09-24T01:07:38.550Z,13.28
2023-09-24T01:10:12.210Z,13.33
2023-09-24T01:12:42.288Z,13.19
2023-09-24T01:15:14.671Z,13.25
2023-09-24T01:17:41.728Z,13.22
2023-09-24T01:20:14.639Z,13.17
2023-09-24T01:22:41.983Z,13.05
2023-09-24T01:25:09.223Z,12.92
2023-09-24T01:27:36.623Z,12.81
2023-09-24T01:30:07.268Z,12.85
2023-09-24T01:32:34.234Z,12.98
2023-09-24T01:35:04.589Z,12.99
2023-09-24T01:37:35.051Z,12.93
2023-09-24T01:40:16.849Z,12.96
2023-09-24T01:42:43.574Z,12.97
2023-09-24T01:45:11.553Z,12.84
2023-09-24T01:47:38.438Z,12.74
2023-09-24T01:50:08.314Z,12.78
2023-09-24T01:52:36.517Z,12.94
2023-09-24T01:55:03.539Z,12.98
2023-09-24T01:57:30.971Z,13.13
2023-09-24T01:59:58.022Z,13.22
2023-09-24T02:02:24.863Z,13.24
2023-09-24T02:04:51.714Z,13.18
2023-09-24T02:07:18.375Z,13.15
2023-09-24T02:09:45.096Z,13.18
2023-09-24T02:12:14.037Z,13.22
2023-09-24T02:14:40.843Z,13.15
2023-09-24T02:17:07.635Z,13.16
2023-09-24T02:19:34.348Z,13.16
2023-09-24T02:22:01.161Z,13.17
2023-09-24T02:24:27.924Z,13.15
2023-09-24T02:26:54.639Z,13.07
2023-09-24T02:29:21.470Z,12.98
2023-09-24T02:31:53.300Z,12.96
2023-09-24T02:34:20.078Z,12.93
2023-09-24T02:36:46.854Z,12.97
2023-09-24T02:39:13.640Z,13.08
2023-09-24T02:41:42.443Z,13.11
2023-09-24T02:44:09.178Z,13.08
2023-09-24T02:46:36.166Z,12.85
2023-09-24T02:49:04.098Z,12.74
2023-09-24T02:51:30.855Z,12.82
2023-09-24T02:53:57.643Z,12.77
2023-09-24T02:56:24.427Z,12.84
2023-09-24T02:58:51.154Z,12.84
2023-09-24T03:01:21.188Z,12.72
2023-09-24T03:03:48.277Z,12.73
2023-09-24T03:06:15.231Z,12.65
2023-09-24T03:08:42.109Z,12.54
2023-09-24T03:11:15.629Z,12.53
2023-09-24T03:13:43.451Z,12.59
2023-09-24T03:16:10.248Z,12.51
2023-09-24T03:18:37.161Z,12.53
2023-09-24T03:21:07.539Z,12.46
2023-09-24T03:23:35.193Z,12.52
2023-09-24T03:26:01.986Z,12.54
2023-09-24T03:28:29.081Z,12.54
2023-09-24T03:30:55.870Z,12.73
2023-09-24T03:33:22.762Z,12.65
2023-09-24T03:35:50.452Z,12.59
2023-09-24T03:38:17.828Z,12.50
2023-09-24T03:40:44.548Z,12.44
2023-09-24T03:43:11.303Z,12.53
2023-09-24T03:45:38.158Z,12.48
2023-09-24T03:48:05.317Z,12.43
2023-09-24T03:50:32.103Z,12.37
2023-09-24T03:53:00.636Z,12.50
2023-09-24T03:55:28.307Z,12.65
2023-09-24T03:57:55.446Z,12.46
2023-09-24T04:00:23.282Z,12.46
2023-09-24T04:02:51.785Z,12.39
2023-09-24T04:05:23.960Z,12.49
2023-09-24T04:07:55.969Z,12.43
2023-09-24T04:10:25.247Z,12.31
2023-09-24T04:12:52.683Z,12.33
2023-09-24T04:15:23.063Z,12.21
2023-09-24T04:17:50.701Z,12.20
2023-09-24T04:20:20.905Z,12.35
2023-09-24T04:22:48.490Z,12.37
2023-09-24T04:25:16.802Z,12.37
2023-09-24T04:27:43.854Z,12.41
2023-09-24T04:30:16.499Z,12.43
2023-09-24T04:32:54.310Z,12.44
2023-09-24T04:35:22.185Z,12.46
2023-09-24T04:37:50.302Z,12.47
2023-09-24T04:40:17.420Z,12.49
2023-09-24T04:42:46.368Z,12.60
2023-09-24T04:45:14.242Z,12.52
2023-09-24T04:47:42.630Z,12.42
2023-09-24T04:50:14.432Z,12.41
2023-09-24T04:52:43.601Z,12.37
2023-09-24T04:55:10.696Z,12.30
2023-09-24T04:57:37.682Z,12.25
2023-09-24T05:00:05.675Z,12.26
2023-09-24T05:02:32.608Z,12.21
2023-09-24T05:04:59.566Z,12.17
2023-09-24T05:07:26.762Z,12.15
2023-09-24T05:09:53.644Z,12.14
2023-09-24T05:12:20.720Z,12.27
2023-09-24T05:14:47.614Z,12.26
2023-09-24T05:17:14.433Z,12.27
2023-09-24T05:19:41.150Z,12.15
2023-09-24T05:22:08.993Z,12.21
2023-09-24T05:24:36.175Z,12.22
2023-09-24T05:27:03.156Z,12.19
2023-09-24T05:29:29.948Z,12.21
2023-09-24T05:31:56.999Z,12.21
2023-09-24T05:34:24.334Z,12.22
2023-09-24T05:36:51.371Z,12.22
2023-09-24T05:39:18.079Z,12.29
2023-09-24T05:41:45.355Z,12.39
2023-09-24T05:44:13.219Z,12.44
2023-09-24T05:46:40.168Z,12.32
2023-09-24T05:49:06.880Z,12.34
2023-09-24T05:51:33.617Z,12.40
2023-09-24T05:54:00.414Z,12.54
2023-09-24T05:56:27.620Z,12.70
2023-09-24T05:58:57.516Z,13.02
2023-09-24T06:01:24.502Z,13.32
2023-09-24T06:03:51.650Z,13.42
2023-09-24T06:06:18.708Z,13.64
2023-09-24T06:08:45.553Z,13.87
2023-09-24T06:11:12.513Z,14.23
2023-09-24T06:13:39.623Z,14.64
2023-09-24T06:16:07.547Z,14.93
2023-09-24T06:18:34.468Z,15.16
2023-09-24T06:21:03.881Z,15.31
2023-09-24T06:23:32.106Z,15.60
2023-09-24T06:25:59.776Z,16.28
2023-09-24T06:28:27.441Z,16.95
2023-09-24T06:31:01.437Z,17.55
2023-09-24T06:33:28.791Z,18.26
2023-09-24T06:35:56.170Z,19.17
2023-09-24T06:38:23.145Z,20.63
2023-09-24T06:41:03.727Z,22.17
2023-09-24T06:43:31.530Z,23.36
2023-09-24T06:45:58.512Z,24.29
2023-09-24T06:48:26.609Z,25.72
2023-09-24T06:50:57.145Z,27.69
2023-09-24T06:53:24.556Z,29.33
2023-09-24T06:55:51.379Z,30.68
2023-09-24T06:58:18.129Z,31.96
2023-09-24T07:00:44.810Z,32.83
2023-09-24T07:03:11.790Z,33.98
2023-09-24T07:05:38.754Z,34.37
2023-09-24T07:08:06.136Z,35.48
2023-09-24T07:10:33.206Z,35.22
2023-09-24T07:13:00.105Z,35.57
2023-09-24T07:15:26.856Z,36.11
2023-09-24T07:17:54.747Z,36.87
2023-09-24T07:20:21.980Z,37.38
2023-09-24T07:22:48.805Z,37.69
2023-09-24T07:25:15.671Z,38.22
2023-09-24T07:27:42.870Z,37.71
2023-09-24T07:30:10.553Z,38.75
2023-09-24T07:32:38.635Z,38.76
2023-09-24T07:35:06.517Z,38.34
2023-09-24T07:37:33.229Z,39.15
2023-09-24T07:40:00.046Z,39.72
2023-09-24T07:42:26.874Z,40.38
2023-09-24T07:44:54.190Z,40.35
2023-09-24T07:47:21.014Z,41.14
2023-09-24T07:49:47.840Z,41.01
2023-09-24T07:52:15.521Z,42.00
2023-09-24T07:54:42.490Z,41.91
2023-09-24T07:57:09.332Z,42.23
2023-09-24T07:59:36.249Z,41.91
2023-09-24T08:02:03.515Z,42.57
2023-09-24T08:04:30.307Z,42.86
2023-09-24T08:06:57.347Z,43.39
2023-09-24T08:09:27.608Z,42.57
2023-09-24T08:11:56.054Z,43.27
2023-09-24T08:14:23.455Z,44.14
2023-09-24T08:16:51.507Z,44.37
2023-09-24T08:19:18.606Z,43.81
2023-09-24T08:21:45.347Z,44.46
2023-09-24T08:24:12.148Z,45.18
2023-09-24T08:26:38.963Z,45.74
2023-09-24T08:29:07.891Z,46.13
2023-09-24T08:31:36.064Z,45.42
2023-09-24T08:34:04.585Z,46.20
2023-09-24T08:36:31.414Z,45.16
2023-09-24T08:38:58.486Z,45.54
2023-09-24T08:41:25.860Z,46.12
2023-09-24T08:43:56.936Z,44.95
2023-09-24T08:46:25.317Z,45.31
2023-09-24T08:48:53.803Z,44.20
2023-09-24T08:51:21.634Z,46.12
2023-09-24T08:53:48.605Z,46.96
2023-09-24T08:56:17.098Z,46.38
2023-09-24T08:58:44.764Z,46.12
2023-09-24T09:01:12.905Z,45.41
2023-09-24T09:03:41.137Z,46.75
2023-09-24T09:06:08.485Z,47.63
2023-09-24T09:08:55.987Z,48.13
2023-09-24T09:11:38.099Z,47.07
2023-09-24T09:14:05.037Z,48.69
2023-09-24T09:16:32.584Z,48.26
2023-09-24T09:19:01.519Z,49.08
2023-09-24T09:21:29.100Z,49.51
2023-09-24T09:23:56.617Z,46.80
2023-09-24T09:26:34.548Z,44.91
2023-09-24T09:29:05.220Z,45.43
2023-09-24T09:31:32.256Z,44.21
2023-09-24T09:34:07.549Z,44.62
2023-09-24T09:36:35.853Z,44.73
2023-09-24T09:39:04.252Z,44.58
2023-09-24T09:41:34.168Z,44.43
2023-09-24T09:44:08.493Z,46.16
2023-09-24T09:46:38.641Z,46.44
2023-09-24T09:49:10.684Z,46.91
2023-09-24T09:51:49.677Z,46.03
2023-09-24T09:54:18.556Z,45.83
2023-09-24T09:56:45.682Z,47.37
2023-09-24T09:59:12.526Z,48.01
2023-09-24T10:01:39.390Z,48.84
2023-09-24T10:04:08.119Z,48.84
2023-09-24T10:06:39.262Z,49.80
2023-09-24T10:09:28.132Z,48.99
2023-09-24T10:11:57.569Z,48.97
2023-09-24T10:14:36.496Z,46.91
2023-09-24T10:17:24.525Z,47.62
2023-09-24T10:20:07.837Z,48.07
2023-09-24T10:22:36.174Z,45.92
2023-09-24T10:25:31.865Z,45.63
2023-09-24T10:28:16.484Z,45.96
2023-09-24T10:31:05.771Z,43.93
2023-09-24T10:33:55.118Z,44.27
2023-09-24T10:36:24.097Z,43.90
2023-09-24T10:39:11.851Z,44.64
2023-09-24T10:42:10.643Z,44.83
2023-09-24T10:44:38.621Z,46.38
2023-09-24T10:47:29.116Z,47.21
2023-09-24T10:50:17.776Z,47.31
2023-09-24T10:53:00.114Z,49.36
2023-09-24T10:55:36.079Z,49.34
2023-09-24T10:58:02.939Z,48.47
2023-09-24T11:00:31.090Z,48.94
2023-09-24T11:03:03.407Z,48.90
2023-09-24T11:05:34.470Z,49.27
2023-09-24T11:08:01.167Z,49.61
2023-09-24T11:10:28.140Z,50.03
2023-09-24T11:12:56.408Z,50.29
2023-09-24T11:15:25.247Z,50.87
2023-09-24T11:17:52.812Z,50.22
2023-09-24T11:20:22.148Z,50.20
2023-09-24T11:23:12.607Z,49.91
2023-09-24T11:25:40.198Z,48.01
2023-09-24T11:28:07.409Z,48.62
2023-09-24T11:30:49.011Z,49.47
2023-09-24T11:33:17.441Z,50.58
2023-09-24T11:35:45.872Z,50.02
2023-09-24T11:38:13.081Z,50.92
2023-09-24T11:40:42.067Z,50.55
2023-09-24T11:43:13.711Z,49.99
2023-09-24T11:45:49.862Z,48.87
2023-09-24T11:48:25.908Z,48.72
2023-09-24T11:50:54.574Z,48.86
2023-09-24T11:53:24.684Z,49.10
2023-09-24T11:55:54.361Z,47.52
2023-09-24T11:58:23.180Z,47.81
2023-09-24T12:00:50.009Z,47.51
2023-09-24T12:03:17.077Z,47.48
2023-09-24T12:05:44.120Z,48.15
2023-09-24T12:08:11.290Z,45.00
2023-09-24T12:10:42.944Z,44.41
2023-09-24T12:13:10.970Z,44.74
2023-09-24T12:15:38.761Z,44.22
2023-09-24T12:18:07.254Z,44.24
2023-09-24T12:20:35.703Z,43.36
2023-09-24T12:23:07.385Z,42.70
2023-09-24T12:25:39.448Z,42.21
2023-09-24T12:28:12.914Z,40.21
2023-09-24T12:30:39.909Z,37.24
2023-09-24T12:33:10.534Z,36.63
2023-09-24T12:35:41.224Z,35.14
2023-09-24T12:38:08.142Z,34.00
2023-09-24T12:40:35.051Z,33.47
2023-09-24T12:43:01.827Z,32.87
2023-09-24T12:45:28.718Z,32.35
2023-09-24T12:47:55.583Z,31.76
2023-09-24T12:50:22.429Z,31.28
2023-09-24T12:52:49.453Z,31.32
2023-09-24T12:55:17.561Z,31.33
2023-09-24T12:57:45.603Z,31.25
2023-09-24T13:00:13.585Z,30.71
2023-09-24T13:02:42.767Z,30.64
2023-09-24T13:05:11.286Z,30.69
2023-09-24T13:07:40.102Z,30.05
2023-09-24T13:10:07.947Z,29.82
2023-09-24T13:12:34.940Z,29.52
2023-09-24T13:15:02.386Z,29.49
2023-09-24T13:17:30.188Z,29.46
2023-09-24T13:19:57.017Z,29.33
2023-09-24T13:22:23.744Z,29.20
2023-09-24T13:24:50.596Z,29.25
2023-09-24T13:27:17.428Z,29.25
2023-09-24T13:29:44.425Z,29.27
2023-09-24T13:32:12.964Z,29.32
2023-09-24T13:34:39.934Z,29.02
2023-09-24T13:37:06.754Z,28.80
2023-09-24T13:39:33.494Z,28.44
2023-09-24T13:42:00.474Z,28.79
2023-09-24T13:44:27.351Z,28.38
2023-09-24T13:46:54.393Z,28.72
2023-09-24T13:49:21.279Z,28.80
2023-09-24T13:51:50.799Z,28.90
2023-09-24T13:54:17.619Z,28.74
2023-09-24T13:56:44.677Z,28.22
2023-09-24T13:59:12.923Z,28.01
2023-09-24T14:01:39.737Z,27.85
2023-09-24T14:04:06.726Z,27.73
2023-09-24T14:06:33.547Z,26.85
2023-09-24T14:09:19.128Z,27.12
2023-09-24T14:12:04.729Z,26.96
2023-09-24T14:14:31.449Z,26.87
2023-09-24T14:16:58.153Z,26.64
2023-09-24T14:19:24.938Z,26.65
2023-09-24T14:21:51.784Z,26.89
2023-09-24T14:24:18.570Z,26.82
2023-09-24T14:26:45.339Z,26.90
2023-09-24T14:29:12.099Z,26.39
2023-09-24T14:31:38.915Z,26.78
2023-09-24T14:34:05.709Z,26.44
2023-09-24T14:36:32.379Z,26.33
2023-09-24T14:39:03.458Z,26.53
2023-09-24T14:41:31.540Z,26.12
2023-09-24T14:43:59.226Z,25.90
2023-09-24T14:46:27.665Z,26.19
2023-09-24T14:48:54.625Z,26.23
2023-09-24T14:51:21.649Z,25.94
2023-09-24T14:53:49.092Z,26.01
2023-09-24T14:56:21.663Z,26.13
2023-09-24T14:58:48.528Z,26.23
2023-09-24T15:01:15.634Z,26.39
2023-09-24T15:03:42.670Z,26.44
2023-09-24T15:06:09.789Z,26.09
2023-09-24T15:08:37.194Z,26.30
2023-09-24T15:11:05.964Z,26.32
2023-09-24T15:13:33.822Z,26.04
2023-09-24T15:16:00.841Z,26.09
2023-09-24T15:18:27.737Z,26.03
2023-09-24T15:20:54.543Z,26.18
2023-09-24T15:23:22.032Z,26.36
2023-09-24T15:25:50.119Z,25.79
2023-09-24T15:28:17.989Z,25.74
2023-09-24T15:30:47.515Z,25.71
2023-09-24T15:33:15.579Z,25.48
2023-09-24T15:35:42.455Z,25.69
2023-09-24T15:38:11.277Z,25.80
2023-09-24T15:40:39.463Z,26.07
2023-09-24T15:43:07.930Z,25.91
2023-09-24T15:45:35.320Z,26.04
2023-09-24T15:48:05.228Z,26.42
2023-09-24T15:50:33.340Z,26.21
2023-09-24T15:53:00.335Z,25.97
2023-09-24T15:55:28.977Z,25.77
2023-09-24T15:57:56.016Z,25.55
2023-09-24T16:00:23.825Z,25.50
2023-09-24T16:02:51.066Z,25.60
2023-09-24T16:05:18.446Z,25.43
2023-09-24T16:07:45.504Z,25.51
2023-09-24T16:10:12.300Z,24.92
2023-09-24T16:12:39.139Z,24.85
2023-09-24T16:15:06.998Z,24.52
2023-09-24T16:17:33.933Z,24.42
2023-09-24T16:20:01.332Z,24.45
2023-09-24T16:22:28.321Z,24.67
2023-09-24T16:24:55.155Z,24.19
2023-09-24T16:27:23.389Z,24.23
2023-09-24T16:29:51.837Z,24.26
2023-09-24T16:32:19.333Z,24.14
2023-09-24T16:34:49.282Z,23.85
2023-09-24T16:37:16.222Z,23.65
2023-09-24T16:39:43.149Z,23.57
2023-09-24T16:42:10.255Z,23.47
2023-09-24T16:44:37.126Z,23.44
2023-09-24T16:47:06.537Z,23.43
2023-09-24T16:49:34.009Z,22.86
2023-09-24T16:52:01.354Z,22.89
2023-09-24T16:54:28.507Z,22.73
2023-09-24T16:56:56.205Z,22.81
2023-09-24T16:59:23.450Z,22.74
2023-09-24T17:01:52.437Z,22.64
2023-09-24T17:04:20.149Z,22.64
2023-09-24T17:06:47.416Z,22.42
2023-09-24T17:09:14.850Z,22.30
2023-09-24T17:11:43.094Z,22.31
2023-09-24T17:14:10.149Z,22.25
2023-09-24T17:16:36.891Z,21.86
2023-09-24T17:19:03.648Z,21.79
2023-09-24T17:21:30.490Z,21.70
2023-09-24T17:23:57.576Z,21.68
2023-09-24T17:26:24.740Z,21.68
2023-09-24T17:28:54.619Z,21.58
2023-09-24T17:31:21.858Z,21.47
2023-09-24T17:33:49.572Z,21.24
2023-09-24T17:36:19.662Z,21.08
2023-09-24T17:38:47.944Z,20.94
2023-09-24T17:41:16.378Z,20.78
2023-09-24T17:43:43.731Z,20.74
2023-09-24T17:46:16.685Z,20.72
2023-09-24T17:48:45.636Z,20.72
2023-09-24T17:51:13.191Z,20.63
2023-09-24T17:53:41.171Z,20.51
2023-09-24T17:56:09.000Z,20.49
2023-09-24T17:58:36.135Z,20.51
2023-09-24T18:01:08.859Z,20.48
2023-09-24T18:03:36.493Z,20.38
2023-09-24T18:06:03.509Z,20.34
2023-09-24T18:08:32.159Z,20.30
2023-09-24T18:10:59.772Z,20.33
2023-09-24T18:13:27.031Z,20.23
2023-09-24T18:15:59.195Z,20.10
2023-09-24T18:18:28.454Z,19.94
2023-09-24T18:20:59.906Z,19.80
2023-09-24T18:23:28.889Z,19.70
2023-09-24T18:25:56.035Z,19.72
2023-09-24T18:28:22.856Z,19.77
2023-09-24T18:30:50.214Z,19.83
2023-09-24T18:33:17.238Z,19.76
2023-09-24T18:35:44.628Z,19.84
2023-09-24T18:38:12.030Z,19.77
2023-09-24T18:40:41.253Z,19.65
2023-09-24T18:43:08.338Z,19.57
2023-09-24T18:45:37.941Z,19.39
2023-09-24T18:48:05.951Z,19.38
2023-09-24T18:50:35.430Z,19.40
2023-09-24T18:53:02.263Z,19.37
2023-09-24T18:55:29.057Z,19.40
2023-09-24T18:57:55.928Z,19.31
2023-09-24T19:00:22.795Z,19.28
2023-09-24T19:02:50.012Z,19.19
2023-09-24T19:05:17.316Z,19.05
2023-09-24T19:07:44.303Z,19.02
2023-09-24T19:10:14.807Z,19.09
2023-09-24T19:12:45.403Z,18.94
2023-09-24T19:15:13.760Z,18.87
2023-09-24T19:17:40.902Z,18.85
2023-09-24T19:20:08.748Z,18.93
2023-09-24T19:22:35.982Z,18.89
2023-09-24T19:25:02.981Z,18.81
2023-09-24T19:27:30.032Z,18.84
2023-09-24T19:29:58.316Z,18.69
2023-09-24T19:32:28.934Z,18.68
2023-09-24T19:34:56.102Z,18.63
2023-09-24T19:37:23.339Z,18.53
2023-09-24T19:39:50.396Z,18.55
2023-09-24T19:42:17.324Z,18.52
2023-09-24T19:44:46.966Z,18.46
2023-09-24T19:47:16.670Z,18.52
2023-09-24T19:49:44.270Z,18.46
2023-09-24T19:52:11.154Z,18.39
2023-09-24T19:54:38.195Z,18.25
2023-09-24T19:57:05.135Z,18.37
2023-09-24T19:59:33.201Z,18.39
2023-09-24T20:01:59.976Z,18.35
2023-09-24T20:04:26.740Z,18.35
2023-09-24T20:06:53.627Z,18.39
2023-09-24T20:09:20.710Z,18.39
2023-09-24T20:11:47.597Z,18.35
2023-09-24T20:14:15.170Z,18.16
2023-09-24T20:16:42.495Z,18.32
2023-09-24T20:19:10.385Z,18.30
2023-09-24T20:21:37.718Z,18.18
2023-09-24T20:24:10.279Z,18.25
2023-09-24T20:26:43.208Z,18.20
2023-09-24T20:29:10.616Z,18.10
2023-09-24T20:31:37.929Z,18.17
2023-09-24T20:34:05.810Z,18.14
2023-09-24T20:36:33.626Z,18.07
2023-09-24T20:39:07.725Z,17.98
2023-09-24T20:41:36.210Z,18.00
2023-09-24T20:44:04.030Z,17.99
2023-09-24T20:46:40.966Z,17.97
2023-09-24T20:49:10.015Z,17.93
2023-09-24T20:51:37.196Z,17.87
2023-09-24T20:54:04.400Z,17.83
2023-09-24T20:56:31.372Z,17.88
2023-09-24T20:59:02.446Z,17.87
2023-09-24T21:01:29.327Z,17.82
2023-09-24T21:03:56.393Z,17.70
2023-09-24T21:06:23.349Z,17.78
2023-09-24T21:08:50.350Z,17.80
2023-09-24T21:11:17.213Z,17.83
2023-09-24T21:13:44.886Z,17.70
2023-09-24T21:16:11.686Z,17.69
2023-09-24T21:18:38.573Z,17.55
2023-09-24T21:21:05.331Z,17.60
2023-09-24T21:23:32.126Z,17.54
2023-09-24T21:26:06.045Z,17.60
2023-09-24T21:28:33.849Z,17.56
2023-09-24T21:31:07.935Z,17.42
2023-09-24T21:33:36.277Z,17.37
2023-09-24T21:36:04.892Z,17.40
2023-09-24T21:38:31.812Z,17.39
2023-09-24T21:40:58.904Z,17.34
2023-09-24T21:43:31.059Z,17.21
2023-09-24T21:46:02.834Z,17.26
2023-09-24T21:48:30.425Z,17.10
2023-09-24T21:50:57.447Z,17.20
2023-09-24T21:53:24.385Z,17.37
2023-09-24T21:55:51.361Z,17.27
2023-09-24T21:58:19.266Z,17.42
2023-09-24T22:00:46.162Z,17.22
2023-09-24T22:03:13.511Z,17.31
2023-09-24T22:05:42.402Z,17.26
2023-09-24T22:08:10.128Z,17.23
2023-09-24T22:10:36.980Z,17.22
2023-09-24T22:13:04.216Z,17.28
2023-09-24T22:15:31.129Z,17.25
2023-09-24T22:17:58.104Z,17.17
2023-09-24T22:20:25.000Z,17.05
2023-09-24T22:22:51.838Z,17.16
2023-09-24T22:25:18.642Z,17.09
2023-09-24T22:27:45.573Z,17.07
2023-09-24T22:30:14.745Z,17.03
2023-09-24T22:32:43.776Z,16.94
2023-09-24T22:35:13.127Z,17.00
2023-09-24T22:37:42.183Z,17.03
2023-09-24T22:40:11.000Z,16.82
2023-09-24T22:42:39.104Z,16.98
2023-09-24T22:45:07.755Z,17.01
2023-09-24T22:47:34.665Z,16.93
2023-09-24T22:50:01.585Z,16.90
2023-09-24T22:52:28.352Z,16.78
2023-09-24T22:54:55.128Z,16.88
2023-09-24T22:57:22.110Z,16.75
2023-09-24T22:59:48.879Z,16.81
2023-09-24T23:02:15.877Z,16.79
2023-09-24T23:04:42.654Z,16.88
2023-09-24T23:07:09.861Z,16.66
2023-09-24T23:09:37.206Z,16.57
2023-09-24T23:12:04.494Z,16.53
2023-09-24T23:14:31.290Z,16.59
2023-09-24T23:16:58.017Z,16.49
2023-09-24T23:19:25.014Z,16.60
2023-09-24T23:21:52.697Z,16.65
2023-09-24T23:24:19.496Z,16.60
2023-09-24T23:26:46.865Z,16.59
2023-09-24T23:29:14.247Z,16.53
2023-09-24T23:31:41.308Z,16.50
2023-09-24T23:34:10.148Z,16.54
2023-09-24T23:36:38.072Z,16.45
2023-09-24T23:39:13.246Z,16.47
2023-09-24T23:41:41.207Z,16.40
2023-09-24T23:44:09.224Z,16.39
2023-09-24T23:46:37.066Z,16.39
2023-09-24T23:49:04.004Z,16.36
2023-09-24T23:51:32.198Z,16.30
2023-09-24T23:54:01.678Z,16.35
2023-09-24T23:56:28.467Z,16.29
2023-09-24T23:58:55.243Z,16.31
